sensor_id;sensor_type;location;lat;lon;timestamp;temperature;humidity
16040;DHT22;8124;48.634;8.120;2024-01-16T00:04:43;3.20;99.90
16040;DHT22;8124;48.634;8.120;2024-01-16T00:09:46;3.30;99.90
16040;DHT22;8124;48.634;8.120;2024-01-16T00:14:50;3.20;99.90
16040;DHT22;8124;48.634;8.120;2024-01-16T00:19:53;3.20;99.90
16040;DHT22;8124;48.634;8.120;2024-01-16T00:24:56;3.20;99.90
16040;DHT22;8124;48.634;8.120;2024-01-16T00:30:00;3.20;99.90
16040;DHT22;8124;48.634;8.120;2024-01-16T00:35:04;3.20;99.90
16040;DHT22;8124;48.634;8.120;2024-01-16T00:40:07;3.30;99.90
16040;DHT22;8124;48.634;8.120;2024-01-16T00:45:12;3.20;99.90
16040;DHT22;8124;48.634;8.120;2024-01-16T00:50:15;3.40;99.90
16040;DHT22;8124;48.634;8.120;2024-01-16T00:55:18;3.30;99.90
16040;DHT22;8124;48.634;8.120;2024-01-16T01:00:22;3.20;99.90
16040;DHT22;8124;48.634;8.120;2024-01-16T01:05:25;3.30;99.90
16040;DHT22;8124;48.634;8.120;2024-01-16T01:10:30;3.10;99.90
16040;DHT22;8124;48.634;8.120;2024-01-16T01:15:35;3.30;99.90
16040;DHT22;8124;48.634;8.120;2024-01-16T01:20:37;3.20;99.90
16040;DHT22;8124;48.634;8.120;2024-01-16T01:25:40;3.10;99.90
16040;DHT22;8124;48.634;8.120;2024-01-16T01:30:45;3.20;99.90
16040;DHT22;8124;48.634;8.120;2024-01-16T01:35:48;3.40;99.90
16040;DHT22;8124;48.634;8.120;2024-01-16T01:40:51;3.20;99.90
16040;DHT22;8124;48.634;8.120;2024-01-16T01:46:08;3.20;99.90
16040;DHT22;8124;48.634;8.120;2024-01-16T01:51:13;3.10;99.90
16040;DHT22;8124;48.634;8.120;2024-01-16T01:56:18;3.10;99.90
16040;DHT22;8124;48.634;8.120;2024-01-16T02:01:23;3.10;99.90
16040;DHT22;8124;48.634;8.120;2024-01-16T02:06:26;3.20;99.90
16040;DHT22;8124;48.634;8.120;2024-01-16T02:11:29;3.10;99.90
16040;DHT22;8124;48.634;8.120;2024-01-16T02:16:37;3.20;99.90
16040;DHT22;8124;48.634;8.120;2024-01-16T02:21:45;3.20;99.90
16040;DHT22;8124;48.634;8.120;2024-01-16T02:26:53;3.10;99.90
16040;DHT22;8124;48.634;8.120;2024-01-16T02:31:56;3.10;99.90
16040;DHT22;8124;48.634;8.120;2024-01-16T02:36:59;3.00;99.90
16040;DHT22;8124;48.634;8.120;2024-01-16T02:42:04;3.00;99.90
16040;DHT22;8124;48.634;8.120;2024-01-16T02:47:07;3.00;99.90
16040;DHT22;8124;48.634;8.120;2024-01-16T02:52:10;3.10;99.90
16040;DHT22;8124;48.634;8.120;2024-01-16T02:57:14;3.00;99.90
16040;DHT22;8124;48.634;8.120;2024-01-16T03:02:17;2.90;99.90
16040;DHT22;8124;48.634;8.120;2024-01-16T03:07:20;3.00;99.90
16040;DHT22;8124;48.634;8.120;2024-01-16T03:12:24;2.90;99.90
16040;DHT22;8124;48.634;8.120;2024-01-16T03:17:27;3.00;99.90
16040;DHT22;8124;48.634;8.120;2024-01-16T03:22:30;2.90;99.90
16040;DHT22;8124;48.634;8.120;2024-01-16T03:27:35;2.90;99.90
16040;DHT22;8124;48.634;8.120;2024-01-16T03:32:38;2.90;99.90
16040;DHT22;8124;48.634;8.120;2024-01-16T03:37:41;3.00;99.90
16040;DHT22;8124;48.634;8.120;2024-01-16T03:42:45;2.90;99.90
16040;DHT22;8124;48.634;8.120;2024-01-16T03:47:48;2.80;99.90
16040;DHT22;8124;48.634;8.120;2024-01-16T03:52:52;3.00;99.90
16040;DHT22;8124;48.634;8.120;2024-01-16T03:57:56;3.00;99.90
16040;DHT22;8124;48.634;8.120;2024-01-16T04:02:59;2.80;99.90
16040;DHT22;8124;48.634;8.120;2024-01-16T04:08:02;2.70;99.90
16040;DHT22;8124;48.634;8.120;2024-01-16T04:13:07;2.70;99.90
16040;DHT22;8124;48.634;8.120;2024-01-16T04:18:10;2.70;99.90
16040;DHT22;8124;48.634;8.120;2024-01-16T04:23:13;2.60;99.90
16040;DHT22;8124;48.634;8.120;2024-01-16T04:28:17;2.60;99.90
16040;DHT22;8124;48.634;8.120;2024-01-16T04:33:20;2.50;99.90
16040;DHT22;8124;48.634;8.120;2024-01-16T04:38:23;2.40;99.90
16040;DHT22;8124;48.634;8.120;2024-01-16T04:43:28;2.30;99.90
16040;DHT22;8124;48.634;8.120;2024-01-16T04:48:31;2.40;99.90
16040;DHT22;8124;48.634;8.120;2024-01-16T04:53:35;2.20;99.90
16040;DHT22;8124;48.634;8.120;2024-01-16T04:58:39;2.20;99.90
16040;DHT22;8124;48.634;8.120;2024-01-16T05:03:42;2.10;99.90
16040;DHT22;8124;48.634;8.120;2024-01-16T05:08:45;2.20;99.90
16040;DHT22;8124;48.634;8.120;2024-01-16T05:13:49;1.90;99.90
16040;DHT22;8124;48.634;8.120;2024-01-16T05:18:58;1.90;99.90
16040;DHT22;8124;48.634;8.120;2024-01-16T05:24:02;1.80;99.90
16040;DHT22;8124;48.634;8.120;2024-01-16T05:29:07;1.90;99.90
16040;DHT22;8124;48.634;8.120;2024-01-16T05:34:10;1.90;99.90
16040;DHT22;8124;48.634;8.120;2024-01-16T05:39:13;1.70;99.90
16040;DHT22;8124;48.634;8.120;2024-01-16T05:44:17;1.70;99.90
16040;DHT22;8124;48.634;8.120;2024-01-16T05:49:20;1.60;99.90
16040;DHT22;8124;48.634;8.120;2024-01-16T05:54:23;1.60;99.90
16040;DHT22;8124;48.634;8.120;2024-01-16T05:59:28;1.50;99.90
16040;DHT22;8124;48.634;8.120;2024-01-16T06:04:31;1.50;99.90
16040;DHT22;8124;48.634;8.120;2024-01-16T06:09:38;1.60;99.90
16040;DHT22;8124;48.634;8.120;2024-01-16T06:14:42;1.60;99.90
16040;DHT22;8124;48.634;8.120;2024-01-16T06:19:45;1.60;99.90
16040;DHT22;8124;48.634;8.120;2024-01-16T06:24:48;1.70;99.90
16040;DHT22;8124;48.634;8.120;2024-01-16T06:29:53;1.50;99.90
16040;DHT22;8124;48.634;8.120;2024-01-16T06:34:56;1.50;99.90
16040;DHT22;8124;48.634;8.120;2024-01-16T06:39:59;1.50;99.90
16040;DHT22;8124;48.634;8.120;2024-01-16T06:45:04;1.40;99.90
16040;DHT22;8124;48.634;8.120;2024-01-16T06:50:07;1.20;99.90
16040;DHT22;8124;48.634;8.120;2024-01-16T06:55:11;1.20;99.90
16040;DHT22;8124;48.634;8.120;2024-01-16T07:00:16;1.20;99.90
16040;DHT22;8124;48.634;8.120;2024-01-16T07:05:19;1.20;99.90
16040;DHT22;8124;48.634;8.120;2024-01-16T07:10:22;1.30;99.90
16040;DHT22;8124;48.634;8.120;2024-01-16T07:15:27;1.30;99.90
16040;DHT22;8124;48.634;8.120;2024-01-16T07:20:30;1.40;99.90
16040;DHT22;8124;48.634;8.120;2024-01-16T07:25:33;1.20;99.90
16040;DHT22;8124;48.634;8.120;2024-01-16T07:30:38;0.90;99.90
16040;DHT22;8124;48.634;8.120;2024-01-16T07:35:41;0.30;99.90
16040;DHT22;8124;48.634;8.120;2024-01-16T07:40:49;0.30;99.90
16040;DHT22;8124;48.634;8.120;2024-01-16T07:45:53;0.30;99.90
16040;DHT22;8124;48.634;8.120;2024-01-16T07:50:56;0.70;99.90
16040;DHT22;8124;48.634;8.120;2024-01-16T07:55:59;0.80;99.90
16040;DHT22;8124;48.634;8.120;2024-01-16T08:01:04;1.00;99.90
16040;DHT22;8124;48.634;8.120;2024-01-16T08:06:07;1.10;99.90
16040;DHT22;8124;48.634;8.120;2024-01-16T08:11:10;1.40;99.90
16040;DHT22;8124;48.634;8.120;2024-01-16T08:16:14;1.10;99.90
16040;DHT22;8124;48.634;8.120;2024-01-16T08:21:17;1.30;99.90
16040;DHT22;8124;48.634;8.120;2024-01-16T08:26:20;1.20;99.90
16040;DHT22;8124;48.634;8.120;2024-01-16T08:31:24;1.10;99.90
16040;DHT22;8124;48.634;8.120;2024-01-16T08:36:27;1.20;99.90
16040;DHT22;8124;48.634;8.120;2024-01-16T08:41:30;1.00;99.90
16040;DHT22;8124;48.634;8.120;2024-01-16T08:46:35;1.10;99.90
16040;DHT22;8124;48.634;8.120;2024-01-16T08:51:38;1.00;99.90
16040;DHT22;8124;48.634;8.120;2024-01-16T08:56:42;1.00;99.90
16040;DHT22;8124;48.634;8.120;2024-01-16T09:01:47;1.10;99.90
16040;DHT22;8124;48.634;8.120;2024-01-16T09:06:50;0.90;99.90
16040;DHT22;8124;48.634;8.120;2024-01-16T09:11:54;0.40;99.90
16040;DHT22;8124;48.634;8.120;2024-01-16T09:17:01;0.50;99.90
16040;DHT22;8124;48.634;8.120;2024-01-16T09:22:04;0.50;99.90
16040;DHT22;8124;48.634;8.120;2024-01-16T09:27:07;0.60;99.90
16040;DHT22;8124;48.634;8.120;2024-01-16T09:32:12;1.00;99.90
16040;DHT22;8124;48.634;8.120;2024-01-16T09:37:16;1.10;99.90
16040;DHT22;8124;48.634;8.120;2024-01-16T09:42:19;1.20;99.90
16040;DHT22;8124;48.634;8.120;2024-01-16T09:47:24;1.30;99.90
16040;DHT22;8124;48.634;8.120;2024-01-16T09:52:29;1.40;99.90
16040;DHT22;8124;48.634;8.120;2024-01-16T09:57:32;1.20;99.90
16040;DHT22;8124;48.634;8.120;2024-01-16T10:02:38;0.90;99.90
16040;DHT22;8124;48.634;8.120;2024-01-16T10:07:42;1.10;99.90
16040;DHT22;8124;48.634;8.120;2024-01-16T10:12:46;0.90;99.90
16040;DHT22;8124;48.634;8.120;2024-01-16T10:17:51;1.00;99.90
16040;DHT22;8124;48.634;8.120;2024-01-16T10:22:54;0.80;99.90
16040;DHT22;8124;48.634;8.120;2024-01-16T10:28:03;1.10;99.90
16040;DHT22;8124;48.634;8.120;2024-01-16T10:33:14;1.40;99.90
16040;DHT22;8124;48.634;8.120;2024-01-16T10:38:22;1.40;99.90
16040;DHT22;8124;48.634;8.120;2024-01-16T10:43:27;1.60;99.90
16040;DHT22;8124;48.634;8.120;2024-01-16T10:48:31;1.50;99.90
16040;DHT22;8124;48.634;8.120;2024-01-16T10:53:35;1.70;99.90
16040;DHT22;8124;48.634;8.120;2024-01-16T10:58:40;1.90;99.90
16040;DHT22;8124;48.634;8.120;2024-01-16T11:03:47;2.10;99.90
16040;DHT22;8124;48.634;8.120;2024-01-16T11:08:52;2.00;99.90
16040;DHT22;8124;48.634;8.120;2024-01-16T11:13:57;2.30;99.90
16040;DHT22;8124;48.634;8.120;2024-01-16T11:19:04;2.20;99.90
16040;DHT22;8124;48.634;8.120;2024-01-16T11:24:28;2.50;99.90
16040;DHT22;8124;48.634;8.120;2024-01-16T11:29:35;2.40;99.90
16040;DHT22;8124;48.634;8.120;2024-01-16T11:34:56;2.30;99.90
16040;DHT22;8124;48.634;8.120;2024-01-16T11:40:20;2.40;99.90
16040;DHT22;8124;48.634;8.120;2024-01-16T11:45:48;2.30;99.90
16040;DHT22;8124;48.634;8.120;2024-01-16T11:50:56;2.50;99.90
16040;DHT22;8124;48.634;8.120;2024-01-16T11:56:22;2.50;99.90
16040;DHT22;8124;48.634;8.120;2024-01-16T12:01:43;2.50;99.90
16040;DHT22;8124;48.634;8.120;2024-01-16T12:06:58;2.80;99.90
16040;DHT22;8124;48.634;8.120;2024-01-16T12:12:03;2.80;99.90
16040;DHT22;8124;48.634;8.120;2024-01-16T12:17:09;2.70;99.90
16040;DHT22;8124;48.634;8.120;2024-01-16T12:22:16;3.20;99.90
16040;DHT22;8124;48.634;8.120;2024-01-16T12:27:19;3.20;99.90
16040;DHT22;8124;48.634;8.120;2024-01-16T12:32:23;3.20;99.90
16040;DHT22;8124;48.634;8.120;2024-01-16T12:37:28;3.30;99.90
16040;DHT22;8124;48.634;8.120;2024-01-16T12:42:31;2.90;99.90
16040;DHT22;8124;48.634;8.120;2024-01-16T12:47:34;2.80;99.90
16040;DHT22;8124;48.634;8.120;2024-01-16T12:52:38;2.80;99.90
16040;DHT22;8124;48.634;8.120;2024-01-16T12:57:43;2.70;99.90
16040;DHT22;8124;48.634;8.120;2024-01-16T13:02:49;2.70;99.90
16040;DHT22;8124;48.634;8.120;2024-01-16T13:08:03;2.60;99.90
16040;DHT22;8124;48.634;8.120;2024-01-16T13:13:14;2.70;99.90
16040;DHT22;8124;48.634;8.120;2024-01-16T13:18:19;2.90;99.90
16040;DHT22;8124;48.634;8.120;2024-01-16T13:23:25;2.70;99.90
16040;DHT22;8124;48.634;8.120;2024-01-16T13:28:29;2.70;99.90
16040;DHT22;8124;48.634;8.120;2024-01-16T13:33:32;2.70;99.90
16040;DHT22;8124;48.634;8.120;2024-01-16T13:38:36;2.70;99.90
16040;DHT22;8124;48.634;8.120;2024-01-16T13:43:39;3.00;99.90
16040;DHT22;8124;48.634;8.120;2024-01-16T13:48:42;3.30;99.90
16040;DHT22;8124;48.634;8.120;2024-01-16T13:53:47;3.30;99.90
16040;DHT22;8124;48.634;8.120;2024-01-16T13:58:50;3.20;99.90
16040;DHT22;8124;48.634;8.120;2024-01-16T14:03:53;3.30;99.90
16040;DHT22;8124;48.634;8.120;2024-01-16T14:08:58;3.50;99.90
16040;DHT22;8124;48.634;8.120;2024-01-16T14:14:01;3.40;99.90
16040;DHT22;8124;48.634;8.120;2024-01-16T14:19:04;3.50;99.90
16040;DHT22;8124;48.634;8.120;2024-01-16T14:24:08;3.40;99.90
16040;DHT22;8124;48.634;8.120;2024-01-16T14:29:11;3.50;99.90
16040;DHT22;8124;48.634;8.120;2024-01-16T14:34:14;3.20;99.90
16040;DHT22;8124;48.634;8.120;2024-01-16T14:39:19;3.20;99.70
16040;DHT22;8124;48.634;8.120;2024-01-16T14:44:28;3.00;99.80
16040;DHT22;8124;48.634;8.120;2024-01-16T14:49:31;3.00;99.20
16040;DHT22;8124;48.634;8.120;2024-01-16T14:54:37;3.20;99.40
16040;DHT22;8124;48.634;8.120;2024-01-16T14:59:41;3.30;99.50
16040;DHT22;8124;48.634;8.120;2024-01-16T15:04:44;3.30;99.10
16040;DHT22;8124;48.634;8.120;2024-01-16T15:09:49;3.10;98.60
16040;DHT22;8124;48.634;8.120;2024-01-16T15:14:52;3.00;98.20
16040;DHT22;8124;48.634;8.120;2024-01-16T15:19:55;3.00;98.00
16040;DHT22;8124;48.634;8.120;2024-01-16T15:25:00;3.10;98.00
16040;DHT22;8124;48.634;8.120;2024-01-16T15:30:06;3.00;97.80
16040;DHT22;8124;48.634;8.120;2024-01-16T15:35:10;2.90;97.50
16040;DHT22;8124;48.634;8.120;2024-01-16T15:40:15;2.80;97.30
16040;DHT22;8124;48.634;8.120;2024-01-16T15:45:21;3.10;97.90
16040;DHT22;8124;48.634;8.120;2024-01-16T15:50:28;3.20;98.30
16040;DHT22;8124;48.634;8.120;2024-01-16T15:55:33;3.30;98.80
16040;DHT22;8124;48.634;8.120;2024-01-16T16:00:36;3.30;99.00
16040;DHT22;8124;48.634;8.120;2024-01-16T16:05:40;3.20;99.10
16040;DHT22;8124;48.634;8.120;2024-01-16T16:10:44;3.10;99.20
16040;DHT22;8124;48.634;8.120;2024-01-16T16:15:48;3.10;99.30
16040;DHT22;8124;48.634;8.120;2024-01-16T16:20:51;3.10;99.40
16040;DHT22;8124;48.634;8.120;2024-01-16T16:25:56;3.00;99.40
16040;DHT22;8124;48.634;8.120;2024-01-16T16:30:59;3.00;99.60
16040;DHT22;8124;48.634;8.120;2024-01-16T16:36:03;2.90;99.70
16040;DHT22;8124;48.634;8.120;2024-01-16T16:41:07;2.80;99.60
16040;DHT22;8124;48.634;8.120;2024-01-16T16:46:13;2.80;99.50
16040;DHT22;8124;48.634;8.120;2024-01-16T16:51:18;2.70;99.50
16040;DHT22;8124;48.634;8.120;2024-01-16T16:56:23;2.70;99.60
16040;DHT22;8124;48.634;8.120;2024-01-16T17:01:26;2.60;99.70
16040;DHT22;8124;48.634;8.120;2024-01-16T17:06:29;2.60;99.70
16040;DHT22;8124;48.634;8.120;2024-01-16T17:11:34;2.50;99.70
16040;DHT22;8124;48.634;8.120;2024-01-16T17:16:39;2.40;99.50
16040;DHT22;8124;48.634;8.120;2024-01-16T17:21:42;2.30;99.30
16040;DHT22;8124;48.634;8.120;2024-01-16T17:26:46;2.20;99.40
16040;DHT22;8124;48.634;8.120;2024-01-16T17:31:50;2.60;99.90
16040;DHT22;8124;48.634;8.120;2024-01-16T17:36:53;2.40;99.90
16040;DHT22;8124;48.634;8.120;2024-01-16T17:41:57;2.30;99.90
16040;DHT22;8124;48.634;8.120;2024-01-16T17:47:01;2.20;99.90
16040;DHT22;8124;48.634;8.120;2024-01-16T17:52:04;2.10;99.90
16040;DHT22;8124;48.634;8.120;2024-01-16T17:57:12;2.00;99.90
16040;DHT22;8124;48.634;8.120;2024-01-16T18:02:15;1.90;99.90
16040;DHT22;8124;48.634;8.120;2024-01-16T18:07:21;1.80;99.90
16040;DHT22;8124;48.634;8.120;2024-01-16T18:12:26;1.70;99.90
16040;DHT22;8124;48.634;8.120;2024-01-16T18:17:30;1.60;99.90
16040;DHT22;8124;48.634;8.120;2024-01-16T18:22:33;1.60;99.90
16040;DHT22;8124;48.634;8.120;2024-01-16T18:27:38;1.60;99.90
16040;DHT22;8124;48.634;8.120;2024-01-16T18:32:41;1.60;99.90
16040;DHT22;8124;48.634;8.120;2024-01-16T18:37:45;1.00;99.90
16040;DHT22;8124;48.634;8.120;2024-01-16T18:42:50;0.70;99.90
16040;DHT22;8124;48.634;8.120;2024-01-16T18:47:53;1.00;99.90
16040;DHT22;8124;48.634;8.120;2024-01-16T18:52:56;1.10;99.90
16040;DHT22;8124;48.634;8.120;2024-01-16T18:58:01;1.10;99.90
16040;DHT22;8124;48.634;8.120;2024-01-16T19:03:06;1.00;99.90
16040;DHT22;8124;48.634;8.120;2024-01-16T19:08:09;1.10;99.90
16040;DHT22;8124;48.634;8.120;2024-01-16T19:13:14;1.10;99.90
16040;DHT22;8124;48.634;8.120;2024-01-16T19:18:17;1.20;99.90
16040;DHT22;8124;48.634;8.120;2024-01-16T19:23:20;1.10;99.90
16040;DHT22;8124;48.634;8.120;2024-01-16T19:28:26;1.10;99.90
16040;DHT22;8124;48.634;8.120;2024-01-16T19:33:30;1.20;99.90
16040;DHT22;8124;48.634;8.120;2024-01-16T19:38:34;1.30;99.90
16040;DHT22;8124;48.634;8.120;2024-01-16T19:43:39;1.20;99.90
16040;DHT22;8124;48.634;8.120;2024-01-16T19:48:42;1.20;99.90
16040;DHT22;8124;48.634;8.120;2024-01-16T19:53:45;1.10;99.90
16040;DHT22;8124;48.634;8.120;2024-01-16T19:58:50;0.90;99.90
16040;DHT22;8124;48.634;8.120;2024-01-16T20:03:56;0.70;99.90
16040;DHT22;8124;48.634;8.120;2024-01-16T20:09:00;0.50;99.90
16040;DHT22;8124;48.634;8.120;2024-01-16T20:14:08;0.60;99.90
16040;DHT22;8124;48.634;8.120;2024-01-16T20:19:12;0.60;99.90
16040;DHT22;8124;48.634;8.120;2024-01-16T20:24:15;0.60;99.90
16040;DHT22;8124;48.634;8.120;2024-01-16T20:29:20;0.60;99.90
16040;DHT22;8124;48.634;8.120;2024-01-16T20:34:23;0.50;99.90
16040;DHT22;8124;48.634;8.120;2024-01-16T20:39:26;0.50;99.90
16040;DHT22;8124;48.634;8.120;2024-01-16T20:44:31;0.20;99.90
16040;DHT22;8124;48.634;8.120;2024-01-16T20:49:35;0.20;99.90
16040;DHT22;8124;48.634;8.120;2024-01-16T20:54:39;0.20;99.90
16040;DHT22;8124;48.634;8.120;2024-01-16T20:59:46;0.20;99.90
16040;DHT22;8124;48.634;8.120;2024-01-16T21:04:49;0.20;99.90
16040;DHT22;8124;48.634;8.120;2024-01-16T21:09:52;0.20;99.90
16040;DHT22;8124;48.634;8.120;2024-01-16T21:14:56;0.20;99.90
16040;DHT22;8124;48.634;8.120;2024-01-16T21:19:59;0.20;99.90
16040;DHT22;8124;48.634;8.120;2024-01-16T21:25:03;0.20;99.90
16040;DHT22;8124;48.634;8.120;2024-01-16T21:30:09;0.10;99.90
16040;DHT22;8124;48.634;8.120;2024-01-16T21:35:13;-0.50;99.90
16040;DHT22;8124;48.634;8.120;2024-01-16T21:40:19;-0.30;99.90
16040;DHT22;8124;48.634;8.120;2024-01-16T21:45:23;-0.10;99.90
16040;DHT22;8124;48.634;8.120;2024-01-16T21:50:27;0.00;99.90
16040;DHT22;8124;48.634;8.120;2024-01-16T21:55:38;0.10;99.90
16040;DHT22;8124;48.634;8.120;2024-01-16T22:00:43;-0.40;99.90
16040;DHT22;8124;48.634;8.120;2024-01-16T22:05:46;-0.30;99.90
16040;DHT22;8124;48.634;8.120;2024-01-16T22:10:49;-0.20;99.90
16040;DHT22;8124;48.634;8.120;2024-01-16T22:15:54;0.00;99.90
16040;DHT22;8124;48.634;8.120;2024-01-16T22:20:57;0.00;99.90
16040;DHT22;8124;48.634;8.120;2024-01-16T22:26:00;0.00;99.90
16040;DHT22;8124;48.634;8.120;2024-01-16T22:31:04;0.20;99.90
16040;DHT22;8124;48.634;8.120;2024-01-16T22:36:10;0.10;99.90
16040;DHT22;8124;48.634;8.120;2024-01-16T22:41:13;0.20;99.90
16040;DHT22;8124;48.634;8.120;2024-01-16T22:46:17;0.30;99.90
16040;DHT22;8124;48.634;8.120;2024-01-16T22:51:20;0.30;99.90
16040;DHT22;8124;48.634;8.120;2024-01-16T22:56:23;0.30;99.90
16040;DHT22;8124;48.634;8.120;2024-01-16T23:01:28;0.10;99.90
16040;DHT22;8124;48.634;8.120;2024-01-16T23:06:31;0.30;99.90
16040;DHT22;8124;48.634;8.120;2024-01-16T23:11:34;0.30;99.90
16040;DHT22;8124;48.634;8.120;2024-01-16T23:16:38;0.20;99.90
16040;DHT22;8124;48.634;8.120;2024-01-16T23:21:42;0.30;99.90
16040;DHT22;8124;48.634;8.120;2024-01-16T23:26:45;0.30;99.90
16040;DHT22;8124;48.634;8.120;2024-01-16T23:31:49;0.20;99.90
16040;DHT22;8124;48.634;8.120;2024-01-16T23:36:52;0.30;99.90
16040;DHT22;8124;48.634;8.120;2024-01-16T23:41:56;0.40;99.90
16040;DHT22;8124;48.634;8.120;2024-01-16T23:47:00;0.10;99.90
16040;DHT22;8124;48.634;8.120;2024-01-16T23:52:03;0.30;99.90
16040;DHT22;8124;48.634;8.120;2024-01-16T23:57:07;0.40;99.90
